createdAt,value
2022-11-26T00:00:17.162Z,6.53
2022-11-26T00:02:44.815Z,6.56
2022-11-26T00:05:12.441Z,6.58
2022-11-26T00:07:41.931Z,6.57
2022-11-26T00:10:17.842Z,6.52
2022-11-26T00:12:44.331Z,6.52
2022-11-26T00:15:16.218Z,6.35
2022-11-26T00:17:42.679Z,6.46
2022-11-26T00:20:09.586Z,6.52
2022-11-26T00:22:40.148Z,6.52
2022-11-26T00:25:13.808Z,6.43
2022-11-26T00:27:41.743Z,6.47
2022-11-26T00:30:15.752Z,6.50
2022-11-26T00:32:42.263Z,6.46
2022-11-26T00:35:09.067Z,6.49
2022-11-26T00:37:39.551Z,6.47
2022-11-26T00:40:07.435Z,6.46
2022-11-26T00:42:33.942Z,6.48
2022-11-26T00:45:01.776Z,6.41
2022-11-26T00:47:28.195Z,6.41
2022-11-26T00:49:54.619Z,6.43
2022-11-26T00:52:28.246Z,6.44
2022-11-26T00:54:54.711Z,6.33
2022-11-26T00:57:21.223Z,6.38
2022-11-26T00:59:47.652Z,6.43
2022-11-26T01:02:15.463Z,6.45
2022-11-26T01:04:41.939Z,6.44
2022-11-26T01:07:10.104Z,6.44
2022-11-26T01:09:36.866Z,6.51
2022-11-26T01:12:03.811Z,6.43
2022-11-26T01:14:30.326Z,6.49
2022-11-26T01:16:57.255Z,6.51
2022-11-26T01:19:25.142Z,6.51
2022-11-26T01:21:51.599Z,6.50
2022-11-26T01:24:18.080Z,6.51
2022-11-26T01:26:44.697Z,6.39
2022-11-26T01:29:15.403Z,6.37
2022-11-26T01:31:41.955Z,6.51
2022-11-26T01:34:08.516Z,6.37
2022-11-26T01:36:37.792Z,6.47
2022-11-26T01:39:10.076Z,6.37
2022-11-26T01:41:45.580Z,6.48
2022-11-26T01:44:17.535Z,6.45
2022-11-26T01:46:44.599Z,6.44
2022-11-26T01:49:16.649Z,6.34
2022-11-26T01:51:45.816Z,6.37
2022-11-26T01:54:12.806Z,6.39
2022-11-26T01:56:42.833Z,6.33
2022-11-26T01:59:14.884Z,6.20
2022-11-26T02:01:41.564Z,6.24
2022-11-26T02:04:15.381Z,6.23
2022-11-26T02:06:44.905Z,6.17
2022-11-26T02:09:12.222Z,6.20
2022-11-26T02:11:39.577Z,6.17
2022-11-26T02:14:08.800Z,6.09
2022-11-26T02:16:53.710Z,6.14
2022-11-26T02:20:09.198Z,6.11
2022-11-26T02:23:03.341Z,6.04
2022-11-26T02:25:47.116Z,6.03
2022-11-26T02:28:34.455Z,6.05
2022-11-26T02:31:10.823Z,6.01
2022-11-26T02:33:44.665Z,6.03
2022-11-26T02:36:15.169Z,5.99
2022-11-26T02:38:41.686Z,5.97
2022-11-26T02:41:08.351Z,5.95
2022-11-26T02:43:36.626Z,6.02
2022-11-26T02:46:08.612Z,5.94
2022-11-26T02:48:38.850Z,6.01
2022-11-26T02:51:10.446Z,6.01
2022-11-26T02:53:39.130Z,5.98
2022-11-26T02:56:09.017Z,5.85
2022-11-26T02:58:36.291Z,5.92
2022-11-26T03:01:10.203Z,5.90
2022-11-26T03:03:42.606Z,5.93
2022-11-26T03:06:10.871Z,5.91
2022-11-26T03:08:37.727Z,5.82
2022-11-26T03:11:05.276Z,5.94
2022-11-26T03:13:32.156Z,5.92
2022-11-26T03:15:58.830Z,5.94
2022-11-26T03:18:26.723Z,6.03
2022-11-26T03:20:53.238Z,5.95
2022-11-26T03:23:19.822Z,5.99
2022-11-26T03:25:46.283Z,6.06
2022-11-26T03:28:12.735Z,6.07
2022-11-26T03:30:39.207Z,6.10
2022-11-26T03:33:05.665Z,6.10
2022-11-26T03:35:33.482Z,6.05
2022-11-26T03:37:59.939Z,6.03
2022-11-26T03:40:26.421Z,5.96
2022-11-26T03:42:52.903Z,5.97
2022-11-26T03:45:19.387Z,5.97
2022-11-26T03:47:45.840Z,5.90
2022-11-26T03:50:12.524Z,5.90
2022-11-26T03:52:40.502Z,5.93
2022-11-26T03:55:07.648Z,5.90
2022-11-26T03:57:34.115Z,5.89
2022-11-26T04:00:00.903Z,5.76
2022-11-26T04:02:27.377Z,5.83
2022-11-26T04:04:53.807Z,5.78
2022-11-26T04:07:20.267Z,5.76
2022-11-26T04:09:48.113Z,5.72
2022-11-26T04:12:15.727Z,5.74
2022-11-26T04:14:42.278Z,5.69
2022-11-26T04:17:08.808Z,5.67
2022-11-26T04:19:35.258Z,5.71
2022-11-26T04:22:01.752Z,5.71
2022-11-26T04:24:28.372Z,5.75
2022-11-26T04:26:56.160Z,5.73
2022-11-26T04:29:22.604Z,5.68
2022-11-26T04:31:49.154Z,5.67
2022-11-26T04:34:15.723Z,5.67
2022-11-26T04:36:42.205Z,5.64
2022-11-26T04:39:08.760Z,5.67
2022-11-26T04:41:35.293Z,5.54
2022-11-26T04:44:03.305Z,5.64
2022-11-26T04:46:29.757Z,5.62
2022-11-26T04:48:56.246Z,5.59
2022-11-26T04:51:22.723Z,5.63
2022-11-26T04:53:49.167Z,5.51
2022-11-26T04:56:15.629Z,5.63
2022-11-26T04:58:42.110Z,5.66
2022-11-26T05:01:10.094Z,5.63
2022-11-26T05:03:36.634Z,5.57
2022-11-26T05:06:03.302Z,5.49
2022-11-26T05:08:29.801Z,5.27
2022-11-26T05:10:56.371Z,5.09
2022-11-26T05:13:22.806Z,5.07
2022-11-26T05:15:49.222Z,4.96
2022-11-26T05:18:17.034Z,4.80
2022-11-26T05:20:43.511Z,4.79
2022-11-26T05:23:10.046Z,4.73
2022-11-26T05:25:36.530Z,4.70
2022-11-26T05:28:03.024Z,4.69
2022-11-26T05:30:29.477Z,4.63
2022-11-26T05:32:56.102Z,4.49
2022-11-26T05:35:24.035Z,4.50
2022-11-26T05:37:50.463Z,4.35
2022-11-26T05:40:17.027Z,4.26
2022-11-26T05:42:43.507Z,4.29
2022-11-26T05:45:10.585Z,4.11
2022-11-26T05:47:37.168Z,4.18
2022-11-26T05:50:08.335Z,4.06
2022-11-26T05:52:36.199Z,4.16
2022-11-26T05:55:02.739Z,4.03
2022-11-26T05:57:29.176Z,4.04
2022-11-26T05:59:55.628Z,3.99
2022-11-26T06:02:22.228Z,4.06
2022-11-26T06:04:48.880Z,4.07
2022-11-26T06:07:15.370Z,4.04
2022-11-26T06:09:43.276Z,3.91
2022-11-26T06:12:09.911Z,3.94
2022-11-26T06:14:43.163Z,3.96
2022-11-26T06:17:10.123Z,4.02
2022-11-26T06:19:36.565Z,3.98
2022-11-26T06:22:03.234Z,3.91
2022-11-26T06:24:29.692Z,3.84
2022-11-26T06:26:57.545Z,3.84
2022-11-26T06:29:27.885Z,3.82
2022-11-26T06:31:57.835Z,3.79
2022-11-26T06:34:24.475Z,3.60
2022-11-26T06:36:51.329Z,3.74
2022-11-26T06:39:17.872Z,3.65
2022-11-26T06:41:44.321Z,3.61
2022-11-26T06:44:12.180Z,3.66
2022-11-26T06:46:38.665Z,3.62
2022-11-26T06:49:05.968Z,3.52
2022-11-26T06:51:32.909Z,3.50
2022-11-26T06:53:59.378Z,3.48
2022-11-26T06:56:25.994Z,3.30
2022-11-26T06:58:54.210Z,3.36
2022-11-26T07:01:24.440Z,3.34
2022-11-26T07:03:51.172Z,3.50
2022-11-26T07:06:19.434Z,3.44
2022-11-26T07:08:46.761Z,3.36
2022-11-26T07:11:13.792Z,3.39
2022-11-26T07:13:40.307Z,3.49
2022-11-26T07:16:10.589Z,3.53
2022-11-26T07:18:38.836Z,3.60
2022-11-26T07:21:06.058Z,3.63
2022-11-26T07:23:32.621Z,3.65
2022-11-26T07:25:59.528Z,3.74
2022-11-26T07:28:26.053Z,3.89
2022-11-26T07:30:52.500Z,4.03
2022-11-26T07:33:18.997Z,4.03
2022-11-26T07:35:46.841Z,4.14
2022-11-26T07:38:13.265Z,4.21
2022-11-26T07:40:39.842Z,4.30
2022-11-26T07:43:06.321Z,4.26
2022-11-26T07:45:35.958Z,4.40
2022-11-26T07:48:02.657Z,4.28
2022-11-26T07:50:29.094Z,4.40
2022-11-26T07:52:56.925Z,4.57
2022-11-26T07:55:23.372Z,4.74
2022-11-26T07:57:49.876Z,4.83
2022-11-26T08:00:17.562Z,5.05
2022-11-26T08:02:44.426Z,5.16
2022-11-26T08:05:10.981Z,5.04
2022-11-26T08:07:37.540Z,5.10
2022-11-26T08:10:06.820Z,5.13
2022-11-26T08:12:33.349Z,5.45
2022-11-26T08:14:59.868Z,5.48
2022-11-26T08:17:26.331Z,5.77
2022-11-26T08:19:52.821Z,5.99
2022-11-26T08:22:19.365Z,6.15
2022-11-26T08:24:45.845Z,6.20
2022-11-26T08:27:13.723Z,6.12
2022-11-26T08:29:40.180Z,6.65
2022-11-26T08:32:08.889Z,7.20
2022-11-26T08:34:35.431Z,7.78
2022-11-26T08:37:01.998Z,8.14
2022-11-26T08:39:28.457Z,8.45
2022-11-26T08:41:55.029Z,8.83
2022-11-26T08:44:22.892Z,9.27
2022-11-26T08:46:49.576Z,9.35
2022-11-26T08:49:16.644Z,9.92
2022-11-26T08:51:43.852Z,9.81
2022-11-26T08:54:10.691Z,9.85
2022-11-26T08:56:37.251Z,10.55
2022-11-26T08:59:04.123Z,10.43
2022-11-26T09:01:33.624Z,10.91
2022-11-26T09:04:01.592Z,10.81
2022-11-26T09:06:30.301Z,11.32
2022-11-26T09:08:57.186Z,11.85
2022-11-26T09:11:24.211Z,10.82
2022-11-26T09:13:50.870Z,10.26
2022-11-26T09:16:17.377Z,10.18
2022-11-26T09:18:45.392Z,10.08
2022-11-26T09:21:11.888Z,10.23
2022-11-26T09:23:38.404Z,10.15
2022-11-26T09:26:05.039Z,10.46
2022-11-26T09:28:31.476Z,10.73
2022-11-26T09:30:58.013Z,11.63
2022-11-26T09:33:24.759Z,11.72
2022-11-26T09:35:52.664Z,11.57
2022-11-26T09:38:19.164Z,11.58
2022-11-26T09:40:51.265Z,11.44
2022-11-26T09:43:24.741Z,10.96
2022-11-26T09:45:54.653Z,11.60
2022-11-26T09:48:25.426Z,10.72
2022-11-26T09:50:59.668Z,10.05
2022-11-26T09:53:30.484Z,9.91
2022-11-26T09:55:56.986Z,9.91
2022-11-26T09:58:29.491Z,10.06
2022-11-26T10:00:58.117Z,9.44
2022-11-26T10:03:31.161Z,9.58
2022-11-26T10:06:05.318Z,10.03
2022-11-26T10:09:01.976Z,9.90
2022-11-26T10:11:34.977Z,9.64
2022-11-26T10:14:14.093Z,9.91
2022-11-26T10:16:46.913Z,9.81
2022-11-26T10:19:23.899Z,9.83
2022-11-26T10:22:00.237Z,9.74
2022-11-26T10:24:32.028Z,9.81
2022-11-26T10:27:01.282Z,10.04
2022-11-26T10:29:34.845Z,10.41
2022-11-26T10:32:11.122Z,10.95
2022-11-26T10:34:46.677Z,11.32
2022-11-26T10:37:14.790Z,11.55
2022-11-26T10:39:41.285Z,11.86
2022-11-26T10:42:15.939Z,11.47
2022-11-26T10:44:42.913Z,10.72
2022-11-26T10:47:23.330Z,10.70
2022-11-26T10:49:51.055Z,10.07
2022-11-26T10:52:23.194Z,10.15
2022-11-26T10:55:17.981Z,10.09
2022-11-26T10:57:48.515Z,9.69
2022-11-26T11:00:35.809Z,9.48
2022-11-26T11:03:04.390Z,9.55
2022-11-26T11:05:32.599Z,9.48
2022-11-26T11:08:00.622Z,9.67
2022-11-26T11:10:27.160Z,9.49
2022-11-26T11:13:09.910Z,9.44
2022-11-26T11:15:37.211Z,9.65
2022-11-26T11:18:06.628Z,9.57
2022-11-26T11:20:35.960Z,9.75
2022-11-26T11:23:18.935Z,9.43
2022-11-26T11:25:56.235Z,9.17
2022-11-26T11:28:25.951Z,9.38
2022-11-26T11:31:01.644Z,9.28
2022-11-26T11:33:29.013Z,9.49
2022-11-26T11:35:58.674Z,9.49
2022-11-26T11:38:28.712Z,9.44
2022-11-26T11:40:55.512Z,9.43
2022-11-26T11:43:24.263Z,9.27
2022-11-26T11:46:04.748Z,9.47
2022-11-26T11:48:41.509Z,9.47
2022-11-26T11:51:17.605Z,9.42
2022-11-26T11:53:55.364Z,9.39
2022-11-26T11:56:26.865Z,9.51
2022-11-26T11:59:20.341Z,9.31
2022-11-26T12:02:13.581Z,9.44
2022-11-26T12:04:55.294Z,9.49
2022-11-26T12:07:34.229Z,9.35
2022-11-26T12:10:09.566Z,9.42
2022-11-26T12:12:38.260Z,9.32
2022-11-26T12:15:08.064Z,9.34
2022-11-26T12:17:39.992Z,9.50
2022-11-26T12:20:18.720Z,9.57
2022-11-26T12:22:50.561Z,9.54
2022-11-26T12:25:28.519Z,9.55
2022-11-26T12:28:02.308Z,9.59
2022-11-26T12:30:35.309Z,9.53
2022-11-26T12:33:07.528Z,9.51
2022-11-26T12:35:36.736Z,9.48
2022-11-26T12:38:11.154Z,9.28
2022-11-26T12:40:45.569Z,9.49
2022-11-26T12:43:18.473Z,9.34
2022-11-26T12:45:51.528Z,9.43
2022-11-26T12:48:35.286Z,9.54
2022-11-26T12:51:13.520Z,9.51
2022-11-26T12:53:47.836Z,9.52
2022-11-26T12:56:21.001Z,9.43
2022-11-26T12:58:56.444Z,9.52
2022-11-26T13:01:23.331Z,9.51
2022-11-26T13:03:59.521Z,9.51
2022-11-26T13:06:50.983Z,9.37
2022-11-26T13:09:32.648Z,9.57
2022-11-26T13:12:09.498Z,9.46
2022-11-26T13:14:44.569Z,9.46
2022-11-26T13:17:13.881Z,9.50
2022-11-26T13:19:45.038Z,9.53
2022-11-26T13:22:32.464Z,9.57
2022-11-26T13:25:20.606Z,9.57
2022-11-26T13:27:59.615Z,9.55
2022-11-26T13:30:37.045Z,9.64
2022-11-26T13:33:34.781Z,9.64
2022-11-26T13:36:33.082Z,9.75
2022-11-26T13:39:12.696Z,9.75
2022-11-26T13:41:55.981Z,9.83
2022-11-26T13:44:56.852Z,9.68
2022-11-26T13:47:26.488Z,9.72
2022-11-26T13:49:59.461Z,9.72
2022-11-26T13:52:34.181Z,9.81
2022-11-26T13:55:05.940Z,9.91
2022-11-26T13:57:39.671Z,9.71
2022-11-26T14:00:09.618Z,9.78
2022-11-26T14:02:40.124Z,9.59
2022-11-26T14:05:09.053Z,9.39
2022-11-26T14:07:36.200Z,9.50
2022-11-26T14:10:04.998Z,9.55
2022-11-26T14:13:09.108Z,9.50
2022-11-26T14:15:59.734Z,9.23
2022-11-26T14:19:05.900Z,9.12
2022-11-26T14:21:58.485Z,9.05
2022-11-26T14:25:00.420Z,8.92
2022-11-26T14:27:30.075Z,8.87
2022-11-26T14:30:09.614Z,8.69
2022-11-26T14:32:40.392Z,8.55
2022-11-26T14:35:18.885Z,8.56
2022-11-26T14:37:52.045Z,8.46
2022-11-26T14:40:22.543Z,8.38
2022-11-26T14:42:49.033Z,8.34
2022-11-26T14:45:17.090Z,8.23
2022-11-26T14:47:48.688Z,8.24
2022-11-26T14:50:18.701Z,8.25
2022-11-26T14:52:55.257Z,8.23
2022-11-26T14:55:24.637Z,8.29
2022-11-26T14:57:55.192Z,8.23
2022-11-26T15:00:22.781Z,8.13
2022-11-26T15:02:51.150Z,8.14
2022-11-26T15:05:19.794Z,8.17
2022-11-26T15:07:56.375Z,8.10
2022-11-26T15:10:23.095Z,8.08
2022-11-26T15:12:51.958Z,7.92
2022-11-26T15:15:21.712Z,7.85
2022-11-26T15:17:53.105Z,7.82
2022-11-26T15:20:20.976Z,7.76
2022-11-26T15:22:52.357Z,7.74
2022-11-26T15:25:21.762Z,7.70
2022-11-26T15:27:53.187Z,7.68
2022-11-26T15:30:21.877Z,7.62
2022-11-26T15:32:48.381Z,7.61
2022-11-26T15:35:16.575Z,7.60
2022-11-26T15:37:43.053Z,7.54
2022-11-26T15:40:19.349Z,7.52
2022-11-26T15:42:47.136Z,7.51
2022-11-26T15:45:16.464Z,7.54
2022-11-26T15:47:47.736Z,7.56
2022-11-26T15:50:25.361Z,7.48
2022-11-26T15:52:56.288Z,7.51
2022-11-26T15:55:28.697Z,7.49
2022-11-26T15:57:56.521Z,7.44
2022-11-26T16:00:31.273Z,7.46
2022-11-26T16:02:57.830Z,7.37
2022-11-26T16:05:30.493Z,7.34
2022-11-26T16:07:59.024Z,7.33
2022-11-26T16:10:27.476Z,7.29
2022-11-26T16:13:19.761Z,7.32
2022-11-26T16:15:49.477Z,7.31
2022-11-26T16:18:19.833Z,7.33
2022-11-26T16:20:48.123Z,7.14
2022-11-26T16:23:26.150Z,7.18
2022-11-26T16:26:15.073Z,7.14
2022-11-26T16:28:42.206Z,7.20
2022-11-26T16:31:08.967Z,7.15
2022-11-26T16:33:35.656Z,7.00
2022-11-26T16:36:16.506Z,7.00
2022-11-26T16:38:42.945Z,7.07
2022-11-26T16:41:12.118Z,6.88
2022-11-26T16:43:38.486Z,7.01
2022-11-26T16:46:09.765Z,6.98
2022-11-26T16:48:36.323Z,6.96
2022-11-26T16:51:04.199Z,6.91
2022-11-26T16:53:30.614Z,6.85
2022-11-26T16:55:57.358Z,6.79
2022-11-26T16:58:28.287Z,6.75
2022-11-26T17:00:55.942Z,6.65
2022-11-26T17:03:23.134Z,6.71
2022-11-26T17:05:52.449Z,6.69
2022-11-26T17:08:20.114Z,6.66
2022-11-26T17:10:46.988Z,6.52
2022-11-26T17:13:13.499Z,6.57
2022-11-26T17:15:40.223Z,6.55
2022-11-26T17:18:20.067Z,6.42
2022-11-26T17:20:46.920Z,6.43
2022-11-26T17:23:13.802Z,6.39
2022-11-26T17:25:43.454Z,6.37
2022-11-26T17:28:11.539Z,6.31
2022-11-26T17:30:38.692Z,6.24
2022-11-26T17:33:05.355Z,6.18
2022-11-26T17:35:32.252Z,6.00
2022-11-26T17:37:58.684Z,6.13
2022-11-26T17:40:25.180Z,6.06
2022-11-26T17:42:52.971Z,6.11
2022-11-26T17:45:19.670Z,6.03
2022-11-26T17:47:46.415Z,6.01
2022-11-26T17:50:17.711Z,6.01
2022-11-26T17:52:44.192Z,5.96
2022-11-26T17:55:11.892Z,5.98
2022-11-26T17:57:38.423Z,5.96
2022-11-26T18:00:11.042Z,5.90
2022-11-26T18:02:37.558Z,5.93
2022-11-26T18:05:04.616Z,5.89
2022-11-26T18:07:31.175Z,5.89
2022-11-26T18:10:00.888Z,5.82
2022-11-26T18:12:28.396Z,5.72
2022-11-26T18:14:57.117Z,5.74
2022-11-26T18:17:28.198Z,5.72
2022-11-26T18:19:54.699Z,5.69
2022-11-26T18:22:23.567Z,5.70
2022-11-26T18:24:55.830Z,5.67
2022-11-26T18:27:27.128Z,5.58
2022-11-26T18:29:53.833Z,5.61
2022-11-26T18:32:20.583Z,5.54
2022-11-26T18:34:49.924Z,5.55
2022-11-26T18:37:16.993Z,5.52
2022-11-26T18:39:43.665Z,5.52
2022-11-26T18:44:57.321Z,5.45
2022-11-26T18:47:23.815Z,5.45
2022-11-26T18:49:51.717Z,5.43
2022-11-26T18:52:18.254Z,5.50
2022-11-26T18:54:44.718Z,5.48
2022-11-26T18:57:11.197Z,5.46
2022-11-26T18:59:38.342Z,5.40
2022-11-26T19:02:05.506Z,5.36
2022-11-26T19:04:32.502Z,5.34
2022-11-26T19:07:03.541Z,5.28
2022-11-26T19:09:30.112Z,5.27
2022-11-26T19:11:56.561Z,5.21
2022-11-26T19:14:22.998Z,5.23
2022-11-26T19:16:50.967Z,5.17
2022-11-26T19:19:17.753Z,5.11
2022-11-26T19:21:44.257Z,5.12
2022-11-26T19:24:12.957Z,5.12
2022-11-26T19:26:39.414Z,5.06
2022-11-26T19:29:07.082Z,5.15
2022-11-26T19:31:34.969Z,5.05
2022-11-26T19:34:03.004Z,4.99
2022-11-26T19:36:29.494Z,5.01
2022-11-26T19:39:00.302Z,4.88
2022-11-26T19:41:28.720Z,4.91
2022-11-26T19:43:55.551Z,4.96
2022-11-26T19:46:24.870Z,4.89
2022-11-26T19:48:52.362Z,4.95
2022-11-26T19:51:21.158Z,4.91
2022-11-26T19:53:48.583Z,4.84
2022-11-26T19:56:16.780Z,4.91
2022-11-26T19:58:45.102Z,4.79
2022-11-26T20:01:13.205Z,4.81
2022-11-26T20:03:40.074Z,4.72
2022-11-26T20:06:12.549Z,4.75
2022-11-26T20:08:39.162Z,4.70
2022-11-26T20:11:08.210Z,4.56
2022-11-26T20:13:35.767Z,4.68
2022-11-26T20:16:06.659Z,4.63
2022-11-26T20:18:33.583Z,4.59
2022-11-26T20:21:01.738Z,4.58
2022-11-26T20:23:28.591Z,4.53
2022-11-26T20:25:57.918Z,4.41
2022-11-26T20:28:24.810Z,4.41
2022-11-26T20:30:51.413Z,4.42
2022-11-26T20:33:19.366Z,4.45
2022-11-26T20:35:45.975Z,4.40
2022-11-26T20:38:12.744Z,4.41
2022-11-26T20:40:40.172Z,4.36
2022-11-26T20:43:06.627Z,4.29
2022-11-26T20:45:33.163Z,4.29
2022-11-26T20:47:59.652Z,4.32
2022-11-26T20:50:27.776Z,4.33
2022-11-26T20:52:54.204Z,4.36
2022-11-26T20:55:20.648Z,4.29
2022-11-26T20:57:48.044Z,4.27
2022-11-26T21:00:16.220Z,4.27
2022-11-26T21:02:43.085Z,4.31
2022-11-26T21:05:09.784Z,4.29
2022-11-26T21:07:37.693Z,4.29
2022-11-26T21:10:05.655Z,4.33
2022-11-26T21:12:32.183Z,4.21
2022-11-26T21:14:58.666Z,4.16
2022-11-26T21:17:25.272Z,4.18
2022-11-26T21:19:51.775Z,4.12
2022-11-26T21:22:18.243Z,4.16
2022-11-26T21:24:46.099Z,4.05
2022-11-26T21:27:12.586Z,4.02
2022-11-26T21:29:39.399Z,4.02
2022-11-26T21:32:06.046Z,3.88
2022-11-26T21:34:33.123Z,3.94
2022-11-26T21:36:59.544Z,3.88
2022-11-26T21:39:26.338Z,3.89
2022-11-26T21:41:54.227Z,3.89
2022-11-26T21:44:20.659Z,3.75
2022-11-26T21:46:47.505Z,3.62
2022-11-26T21:49:14.500Z,3.68
2022-11-26T21:51:41.032Z,3.71
2022-11-26T21:54:09.016Z,3.63
2022-11-26T21:56:36.913Z,3.67
2022-11-26T21:59:04.824Z,3.70
2022-11-26T22:01:33.023Z,3.55
2022-11-26T22:04:02.458Z,3.70
2022-11-26T22:06:29.480Z,3.64
2022-11-26T22:08:59.195Z,3.69
2022-11-26T22:11:28.196Z,3.66
2022-11-26T22:13:55.634Z,3.58
2022-11-26T22:16:25.705Z,3.63
2022-11-26T22:18:53.355Z,3.59
2022-11-26T22:21:22.902Z,3.62
2022-11-26T22:23:50.460Z,3.58
2022-11-26T22:26:17.634Z,3.60
2022-11-26T22:28:44.478Z,3.60
2022-11-26T22:31:12.267Z,3.53
2022-11-26T22:33:40.730Z,3.52
2022-11-26T22:36:07.973Z,3.53
2022-11-26T22:38:35.717Z,3.46
2022-11-26T22:41:02.506Z,3.51
2022-11-26T22:43:29.479Z,3.52
2022-11-26T22:46:02.508Z,3.46
2022-11-26T22:48:28.963Z,3.47
2022-11-26T22:50:56.790Z,3.47
2022-11-26T22:53:23.348Z,3.52
2022-11-26T22:55:50.887Z,3.45
2022-11-26T22:58:17.869Z,3.61
2022-11-26T23:00:46.874Z,3.60
2022-11-26T23:03:13.728Z,3.56
2022-11-26T23:05:40.319Z,3.59
2022-11-26T23:08:08.095Z,3.58
2022-11-26T23:10:41.434Z,3.53
2022-11-26T23:13:09.089Z,3.55
2022-11-26T23:15:44.282Z,3.48
2022-11-26T23:18:12.611Z,3.49
2022-11-26T23:20:39.562Z,3.47
2022-11-26T23:23:07.886Z,3.44
2022-11-26T23:25:37.736Z,3.36
2022-11-26T23:28:04.605Z,3.35
2022-11-26T23:30:31.133Z,3.39
2022-11-26T23:32:57.702Z,3.41
2022-11-26T23:35:24.200Z,3.44
2022-11-26T23:37:50.667Z,3.44
2022-11-26T23:40:18.548Z,3.43
2022-11-26T23:42:45.003Z,3.42
2022-11-26T23:45:11.415Z,3.49
2022-11-26T23:47:37.898Z,3.46
2022-11-26T23:50:05.534Z,3.40
2022-11-26T23:52:31.951Z,3.30
2022-11-26T23:54:58.371Z,3.38
2022-11-26T23:57:26.166Z,3.45
2022-11-26T23:59:52.588Z,3.50
